Time;durP1;ratioP1;P1;durP2;ratioP2;P2;SDS_P1;SDS_P2;PMS_P1;PMS_P2;Temp;Humidity;BMP_temperature;BMP_pressure;BME280_temperature;BME280_humidity;BME280_pressure;Samples;Min_cycle;Max_cycle;Signal;HPM_P1;HPM_P2
2021/08/09 08:48:16;;;;;;;;;;;;;;;24.15;34.70;83677.13;2108891;27;1328;-61
2021/08/09 08:49:17;;;;;;;;;;;;;;;24.15;34.40;83679.13;2101170;28;9677;-60
2021/08/09 08:51:28;;;;;;;;;;;;;;;24.15;34.80;83857.19;2070997;28;1718;-60
2021/08/09 08:52:28;;;;;;;;;;;;;;;24.15;34.85;83867.19;2072395;28;1519;-59
2021/08/09 08:53:29;;;;;;;;;;;;;;;24.15;34.92;83857.19;2071100;28;1649;-60
2021/08/09 08:54:29;;;;;;;;;;;;;;;24.15;34.95;83829.19;2081035;28;1868;-60
2021/08/09 08:55:29;;;;;;;;;;;;;;;24.15;34.72;83833.19;2070878;28;1846;-60
2021/08/09 08:56:30;;;;;;;;;;;;;;;24.15;34.78;83843.19;2070665;28;1638;-60
2021/08/09 08:57:30;;;;;;;;;;;;;;;24.15;34.97;83843.19;2071878;28;1692;-61
2021/08/09 08:58:30;;;;;;;;;;;;;;;24.15;34.81;83809.19;2071746;28;1905;-61
2021/08/09 08:59:30;;;;;;;;;;;;;;;24.15;35.02;83803.19;2063634;28;2023;-60
2021/08/09 09:00:37;;;;;;;;;;;;;;;24.15;34.93;83811.19;2063935;28;2046;-60
2021/08/09 09:01:38;;;;;;;;;;;;;;;24.15;34.85;83809.19;2070047;28;1688;-59
2021/08/09 09:02:38;;;;;;;;;;;;;;;24.15;34.09;83693.13;2066999;28;4296;-59
2021/08/09 09:03:41;;;;;;;;;;;;;;;24.15;34.09;83657.13;2067990;28;9939;-59
2021/08/09 09:07:33;;;;;;;;;;;;;;;;;;2100061;27;1828;-62
2021/08/09 09:08:40;;;;;;;;;;;;;;;;;;2095172;28;10027;-63
2021/08/09 09:09:40;;;;;;;;;;;;;;;;;;2091471;28;1928;-63
2021/08/09 09:10:40;;;;;;;;;;;;;;;;;;2092182;28;1919;-63
2021/08/09 09:11:40;;;;;;;;;;;;;;;;;;2093281;28;1696;-63
2021/08/09 09:12:41;;;;;;;;;;;;;;;;;;2093767;28;1928;-68
2021/08/09 09:13:54;;;;;;;;;;;;;;;;;;2092246;28;9578;-62
2021/08/09 09:15:01;;;;;;;;;;;;;;;;;;2081956;28;1830;-63
2021/08/09 09:16:03;;;;;;;;;;;;;;;;;;2073158;28;2083;-63
2021/08/09 09:17:04;;;;;;;;;;;;;;;;;;2088629;28;1709;-63
2021/08/09 09:18:04;;;;;;;;;;;;;;;;;;2087891;28;1715;-63
2021/08/09 09:19:04;;;;;;;;;;;;;;;;;;2088890;28;1707;-61
2021/08/09 09:20:20;;;;;;;;;;;;;;;;;;2087853;28;2032;-62
2021/08/09 09:21:24;;;;;;;;;;;;;;;;;;2095610;28;1200;-62
2021/08/09 09:22:24;;;;;;;;;;;;;;;;;;2088797;28;2110;-63
2021/08/09 09:23:24;;;;;;;;;;;;;;;;;;2080006;28;2248;-62
2021/08/09 09:24:25;;;;;;;;;;;;;;;;;;2088697;28;1775;-62
2021/08/09 09:25:32;;;;;;;;;;;;;;;;;;2090815;28;1707;-62
2021/08/09 09:26:32;;;;;;;;;;;;;;;;;;2089173;28;1910;-62
2021/08/09 09:27:33;;;;;;;;;;;;;;;;;;2089584;28;1812;-62
2021/08/09 09:28:33;;;;;;;;;;;;;;;;;;2088342;28;1835;-62
2021/08/09 09:29:37;;;;;;;;;;;;;;;;;;2088223;28;1785;-62
2021/08/09 09:30:38;;;;;;;;;;;;;;;;;;2093546;28;1762;-62
2021/08/09 09:31:38;;;;;;;;;;;;;;;;;;2094566;28;1523;-62
2021/08/09 09:32:38;;;;;;;;;;;;;;;;;;2092244;28;1816;-62
2021/08/09 09:33:44;;;;;;;;;;;;;;;;;;2081480;28;1835;-62
2021/08/09 09:34:48;;;;;;;;;;;;;;;;;;2094619;28;1418;-62
2021/08/09 09:35:49;;;;;;;;;;;;;;;;;;2091135;28;1469;-62
2021/08/09 09:36:49;;;;;;;;;;;;;;;;;;2088482;28;795;-62
2021/08/09 09:37:49;;;;;;;;;;;;;;;;;;2096374;28;883;-62
2021/08/09 09:38:51;;;;;;;;;;;;;;;;;;2096701;28;1219;-62
2021/08/09 09:39:52;;;;;;;;;;;;;;;;;;2096671;28;872;-62
2021/08/09 09:40:52;;;;;;;;;;;;;;;;;;2097121;28;1238;-64
2021/08/09 09:41:52;;;;;;;;;;;;;;;;;;2088906;28;1193;-65
2021/08/09 09:42:53;;;;;;;;;;;;;;;;;;2076519;28;1284;-65
2021/08/09 09:43:53;;;;;;;;;;;;;;;;;;2064525;28;1517;-64
2021/08/09 09:44:54;;;;;;;;;;;;;;;;;;2080260;28;780;-66
2021/08/09 09:45:54;;;;;;;;;;;;;;;;;;2084350;28;1293;-66
2021/08/09 09:47:13;;;;;;;;;;;;;;;;;;2088684;28;1914;-65
2021/08/09 09:48:14;;;;;;;;;;;;;;;;;;2091165;28;1310;-66
2021/08/09 09:49:33;;;;;;;;;;;;;;;;;;2088767;28;1353;-65
2021/08/09 09:50:33;;;;;;;;;;;;;;;;;;2082499;28;1155;-65
2021/08/09 09:51:40;;;;;;;;;;;;;;;;;;2087993;28;1030;-65
2021/08/09 09:52:47;;;;;;;;;;;;;;;;;;2081167;28;825;-66
2021/08/09 09:53:47;;;;;;;;;;;;;;;;;;2080836;28;1274;-65
2021/08/09 09:54:48;;;;;;;;;;;;;;;;;;2079964;28;1170;-66
2021/08/09 09:55:49;;;;;;;;;;;;;;;;;;2080024;28;1228;-66
2021/08/09 09:56:50;;;;;;;;;;;;;;;;;;2072176;28;754;-66
2021/08/09 09:57:50;;;;;;;;;;;;;;;;;;2087848;28;873;-66
2021/08/09 09:58:50;;;;;;;;;;;;;;;;;;2088532;28;1298;-67
2021/08/09 09:59:50;;;;;;;;;;;;;;;;;;2087494;28;1836;-67
2021/08/09 10:00:52;;;;;;;;;;;;;;;;;;2079986;28;1351;-66
2021/08/09 10:01:52;;;;;;;;;;;;;;;;;;2088441;28;839;-65
2021/08/09 10:02:52;;;;;;;;;;;;;;;;;;2087983;28;1291;-65
2021/08/09 10:03:52;;;;;;;;;;;;;;;;;;2087938;28;2432;-62
2021/08/09 10:04:52;;;;;;;;;;;;;;;;;;2087090;28;9752;-63
2021/08/09 10:05:52;;;;;;;;;;;;;;;;;;2083661;28;61853;-66
2021/08/09 10:06:53;;;;;;;;;;;;;;;;;;2075121;28;1910;-64
2021/08/09 10:09:57;;;;;;;;;;;;;;;;;;2106592;27;9868;-58
2021/08/09 10:10:57;;;;;;;;;;;;;;;;;;2088161;28;9311;-58
2021/08/09 10:12:22;;;;;;;;;;;;;;;;;;2094781;27;9341;-59
2021/08/09 10:13:22;;;;;;;;;;;;;;;;;;2087946;28;9389;-59
2021/08/09 10:14:22;;;;;;;;;;;;;;;;;;2088081;28;1775;-58
2021/08/09 10:15:22;;;;;;;;;;;;;;;;;;2087667;28;1711;-59
2021/08/09 10:16:22;;;;;;;;;;;;;;;;;;2087116;28;1738;-58
2021/08/09 10:17:22;;;;;;;;;;;;;;;;;;2087325;28;1522;-65
2021/08/09 10:18:23;;;;;;;;;;;;;;;;;;2089763;28;9256;-62
2021/08/09 10:20:56;;;;;;;;;;;;;;;;;;2102321;27;9863;-63
2021/08/09 10:26:31;;;;;;;;;;;;;;;;;;2096331;27;9199;-67
2021/08/09 10:29:11;;;;;;;;;;;;;27.60;101782.00;;;;2067994;27;9280;-70
2021/08/09 10:30:18;;;;;;;;;;;;;27.30;101778.00;;;;2083383;28;9510;-63
2021/08/09 10:31:21;;;;;;;;;;;;;27.00;101783.00;;;;2090834;28;1162;-64
2021/08/09 10:32:21;;;;;;;;;;;;;26.80;101788.00;;;;2094727;28;1105;-65
2021/08/09 10:33:40;;;;;;;;;;;;;26.70;101775.00;;;;2080909;28;1182;-65
2021/08/09 10:34:40;;;;;;;;;;;;;26.60;101769.00;;;;2081054;28;1042;-65
2021/08/09 10:35:47;;;;;;;;;;;;;26.50;101777.00;;;;2080595;28;861;-65
2021/08/09 10:37:07;;;;;;;;;;;;;26.50;101777.00;;;;2080461;28;793;-64
2021/08/09 10:38:17;;;;;;;;;;;;;26.40;101782.00;;;;2080432;28;820;-64
2021/08/09 10:39:36;;;;;;;;;;;;;26.40;101773.00;;;;2080494;28;833;-64
2021/08/09 10:40:36;;;;;;;;;;;;;26.40;101770.00;;;;2080617;28;1046;-64
2021/08/09 10:41:37;;;;;;;;;;;;;26.50;101765.00;;;;2080950;28;812;-64
2021/08/09 10:42:40;;;;;;;;;;;;;26.40;101770.00;;;;2081060;28;887;-65
2021/08/09 10:43:59;;;;;;;;;;;;;26.40;101767.00;;;;2080007;28;816;-63
2021/08/09 10:45:00;;;;;;;;;;;;;26.40;101767.00;;;;2080180;28;986;-64
2021/08/09 10:46:00;;;;;;;;;;;;;26.40;101769.00;;;;2080170;28;855;-64
2021/08/09 10:47:00;;;;;;;;;;;;;26.40;101777.00;;;;2079964;28;1031;-64
2021/08/09 10:48:01;;;;;;;;;;;;;26.40;101773.00;;;;2079235;28;1907;-64
2021/08/09 10:49:01;;;;;;;;;;;;;26.50;101771.00;;;;2079929;28;1273;-64
2021/08/09 10:50:01;;;;;;;;;;;;;26.50;101775.00;;;;2079860;28;1299;-64
2021/08/09 10:51:01;;;;;;;;;;;;;26.50;101772.00;;;;2080007;28;1009;-65
2021/08/09 10:52:01;;;;;;;;;;;;;26.60;101771.00;;;;2075292;28;1447;-64
2021/08/09 10:53:02;;;;;;;;;;;;;26.60;101773.00;;;;2080702;28;1042;-63
2021/08/09 10:54:15;;;;;;;;;;;;;26.60;101777.00;;;;2096337;28;815;-64
2021/08/09 10:55:31;;;;;;;;;;;;;26.50;101769.00;;;;2086411;28;1380;-64
2021/08/09 10:56:42;;;;;;;;;;;;;26.60;101773.00;;;;2080175;28;1045;-64
2021/08/09 10:57:42;;;;;;;;;;;;;26.60;101768.00;;;;2095779;28;1017;-64
2021/08/09 10:58:42;;;;;;;;;;;;;26.60;101777.00;;;;2088665;28;1221;-64
2021/08/09 10:59:46;;;;;;;;;;;;;26.60;101760.00;;;;2089485;28;1014;-63
2021/08/09 11:00:48;;;;;;;;;;;;;26.60;101771.00;;;;2088070;28;1650;-64
2021/08/09 11:01:56;;;;;;;;;;;;;26.60;101772.00;;;;2080616;28;1584;-64
2021/08/09 11:03:05;;;;;;;;;;;;;26.60;101768.00;;;;2079603;28;1381;-64
2021/08/09 11:04:06;;;;;;;;;;;;;26.60;101758.00;;;;2081018;28;1498;-64
2021/08/09 11:05:13;;;;;;;;;;;;;26.60;101760.00;;;;2081215;28;1545;-62
2021/08/09 11:06:32;;;;;;;;;;;;;26.60;101764.00;;;;2086389;28;1287;-62
2021/08/09 11:07:32;;;;;;;;;;;;;26.60;101770.00;;;;2099241;28;1627;-62
2021/08/09 11:08:33;;;;;;;;;;;;;26.60;101770.00;;;;2096498;28;1998;-62
2021/08/09 11:09:37;;;;;;;;;;;;;26.50;101769.00;;;;2080310;28;812;-62
2021/08/09 11:10:56;;;;;;;;;;;;;26.50;101774.00;;;;2072312;28;1361;-61
2021/08/09 11:12:09;;;;;;;;;;;;;26.60;101773.00;;;;2090956;28;872;-62
2021/08/09 11:13:09;;;;;;;;;;;;;26.60;101770.00;;;;2086946;28;828;-62
2021/08/09 11:14:09;;;;;;;;;;;;;26.60;101765.00;;;;2080099;28;838;-62
2021/08/09 11:15:13;;;;;;;;;;;;;26.60;101758.00;;;;2096723;28;1259;-63
2021/08/09 11:16:19;;;;;;;;;;;;;26.70;101766.00;;;;2095934;28;843;-62
2021/08/09 11:17:19;;;;;;;;;;;;;26.70;101770.00;;;;2088563;28;1282;-61
2021/08/09 11:18:19;;;;;;;;;;;;;26.70;101764.00;;;;2087846;28;1268;-61
2021/08/09 11:19:20;;;;;;;;;;;;;26.70;101764.00;;;;2096883;28;801;-61
2021/08/09 11:20:24;;;;;;;;;;;;;26.70;101762.00;;;;2088454;28;770;-62
2021/08/09 11:21:25;;;;;;;;;;;;;26.70;101755.00;;;;2080412;28;910;-62
2021/08/09 11:22:25;;;;;;;;;;;;;26.80;101760.00;;;;2088447;28;812;-62
2021/08/09 11:23:25;;;;;;;;;;;;;26.80;101763.00;;;;2096710;28;884;-62
2021/08/09 11:24:32;;;;;;;;;;;;;26.80;101767.00;;;;2088448;28;884;-61
2021/08/09 11:25:39;;;;;;;;;;;;;26.80;101764.00;;;;2080868;28;1026;-61
2021/08/09 11:26:39;;;;;;;;;;;;;26.80;101765.00;;;;2096469;28;836;-62
2021/08/09 11:27:54;;;;;;;;;;;;;26.90;101760.00;;;;2096328;28;1370;-62
2021/08/09 11:29:01;;;;;;;;;;;;;26.90;101756.00;;;;2086822;28;2055;-61
2021/08/09 11:30:02;;;;;;;;;;;;;26.90;101757.00;;;;2088160;28;2097;-61
2021/08/09 11:31:03;;;;;;;;;;;;;26.90;101759.00;;;;2096488;28;1941;-61
2021/08/09 11:32:03;;;;;;;;;;;;;26.90;101761.00;;;;2096634;28;1211;-62
2021/08/09 11:33:04;;;;;;;;;;;;;26.90;101766.00;;;;2088610;28;2000;-61
2021/08/09 11:34:07;;;;;;;;;;;;;26.80;101760.00;;;;2097091;28;1808;-61
2021/08/09 11:35:07;;;;;;;;;;;;;26.80;101760.00;;;;2087962;28;1769;-61
2021/08/09 11:36:08;;;;;;;;;;;;;26.80;101756.00;;;;2079644;28;1755;-61
2021/08/09 11:37:08;;;;;;;;;;;;;26.80;101766.00;;;;2096154;28;1819;-61
2021/08/09 11:38:09;;;;;;;;;;;;;26.80;101757.00;;;;2096106;28;1284;-62
2021/08/09 11:39:09;;;;;;;;;;;;;26.90;101752.00;;;;2079776;28;1729;-62
2021/08/09 11:40:09;;;;;;;;;;;;;26.90;101748.00;;;;2075833;28;805;-62
2021/08/09 11:41:10;;;;;;;;;;;;;26.90;101759.00;;;;2082801;28;999;-61
2021/08/09 11:42:11;;;;;;;;;;;;;27.00;101746.00;;;;2075084;28;849;-63
2021/08/09 11:43:15;;;;;;;;;;;;;27.00;101753.00;;;;2075415;28;727;-62
2021/08/09 11:44:15;;;;;;;;;;;;;27.00;101751.00;;;;2074336;28;1809;-61
2021/08/09 11:45:22;;;;;;;;;;;;;27.00;101749.00;;;;2082780;28;2000;-61
2021/08/09 11:46:22;;;;;;;;;;;;;27.00;101745.00;;;;2082044;28;1014;-61
2021/08/09 11:47:22;;;;;;;;;;;;;27.00;101747.00;;;;2074419;28;876;-61
2021/08/09 11:48:23;;;;;;;;;;;;;27.00;101747.00;;;;2074017;28;1918;-61
2021/08/09 11:49:23;;;;;;;;;;;;;27.00;101743.00;;;;2074802;28;1014;-62
2021/08/09 11:50:23;;;;;;;;;;;;;27.00;101754.00;;;;2082809;28;888;-61
2021/08/09 11:51:25;;;;;;;;;;;;;27.00;101755.00;;;;2091208;28;918;-61
2021/08/09 11:52:25;;;;;;;;;;;;;26.90;101757.00;;;;2082516;28;821;-62
2021/08/09 11:53:26;;;;;;;;;;;;;26.90;101746.00;;;;2082800;28;711;-61
2021/08/09 11:54:38;;;;;;;;;;;;;26.90;101749.00;;;;2090943;28;785;-61
2021/08/09 11:55:38;;;;;;;;;;;;;27.00;101747.00;;;;2074647;28;821;-61
2021/08/09 11:56:39;;;;;;;;;;;;;27.00;101750.00;;;;2074535;28;836;-61
2021/08/09 11:57:39;;;;;;;;;;;;;27.00;101752.00;;;;2074549;28;895;-62
2021/08/09 11:58:40;;;;;;;;;;;;;27.10;101765.00;;;;2075048;28;1195;-61
2021/08/09 11:59:41;;;;;;;;;;;;;27.00;101750.00;;;;2074957;28;1074;-62
2021/08/09 12:00:41;;;;;;;;;;;;;27.00;101754.00;;;;2075087;28;860;-61
2021/08/09 12:01:42;;;;;;;;;;;;;27.00;101755.00;;;;2082924;28;821;-61
2021/08/09 12:03:01;;;;;;;;;;;;;27.00;101749.00;;;;2082622;28;877;-62
2021/08/09 12:04:02;;;;;;;;;;;;;27.00;101753.00;;;;2075187;28;1751;-61
2021/08/09 12:05:02;;;;;;;;;;;;;27.00;101761.00;;;;2082623;28;1836;-61
2021/08/09 12:06:21;;;;;;;;;;;;;26.90;101752.00;;;;2082596;28;2161;-62
2021/08/09 12:07:22;;;;;;;;;;;;;26.90;101751.00;;;;2090637;28;1790;-61
2021/08/09 12:08:25;;;;;;;;;;;;;26.90;101758.00;;;;2081699;28;1906;-61
2021/08/09 12:09:38;;;;;;;;;;;;;26.90;101760.00;;;;2074960;28;920;-61
2021/08/09 12:10:38;;;;;;;;;;;;;26.90;101755.00;;;;2080426;28;786;-61
2021/08/09 12:11:39;;;;;;;;;;;;;26.90;101747.00;;;;2082268;28;916;-61
2021/08/09 12:12:39;;;;;;;;;;;;;26.90;101747.00;;;;2090423;28;1857;-61
2021/08/09 12:13:39;;;;;;;;;;;;;26.90;101749.00;;;;2090837;28;805;-61
2021/08/09 12:14:39;;;;;;;;;;;;;26.90;101757.00;;;;2075212;28;955;-61
2021/08/09 12:15:39;;;;;;;;;;;;;27.00;101755.00;;;;2082807;28;1113;-61
2021/08/09 12:16:43;;;;;;;;;;;;;27.00;101751.00;;;;2091663;28;1224;-61
2021/08/09 12:17:43;;;;;;;;;;;;;27.00;101742.00;;;;2083182;28;855;-61
2021/08/09 12:18:53;;;;;;;;;;;;;26.90;101750.00;;;;2090506;28;1278;-61
2021/08/09 12:19:53;;;;;;;;;;;;;26.90;101747.00;;;;2090656;28;808;-60
2021/08/09 12:21:09;;;;;;;;;;;;;27.00;101741.00;;;;2083086;28;884;-60
2021/08/09 12:22:12;;;;;;;;;;;;;27.00;101745.00;;;;2083221;28;1205;-61
2021/08/09 12:23:22;;;;;;;;;;;;;27.00;101750.00;;;;2083071;28;808;-61
2021/08/09 12:24:23;;;;;;;;;;;;;27.00;101747.00;;;;2083281;28;796;-61
2021/08/09 12:25:33;;;;;;;;;;;;;27.00;101746.00;;;;2083133;28;824;-61
2021/08/09 12:26:33;;;;;;;;;;;;;27.00;101756.00;;;;2083220;28;999;-62
2021/08/09 12:27:33;;;;;;;;;;;;;27.00;101751.00;;;;2089741;28;782;-62
2021/08/09 12:28:34;;;;;;;;;;;;;27.00;101750.00;;;;2090474;28;1906;-62
2021/08/09 12:29:34;;;;;;;;;;;;;27.00;101739.00;;;;2083033;28;932;-61
2021/08/09 12:30:50;;;;;;;;;;;;;27.00;101739.00;;;;2083258;28;812;-61
2021/08/09 12:31:50;;;;;;;;;;;;;27.00;101747.00;;;;2083183;28;809;-61
2021/08/09 12:32:59;;;;;;;;;;;;;27.00;101751.00;;;;2090448;28;2129;-61
2021/08/09 12:34:04;;;;;;;;;;;;;27.00;101743.00;;;;2091250;28;1995;-61
2021/08/09 12:35:05;;;;;;;;;;;;;27.00;101747.00;;;;2081872;28;1501;-61
2021/08/09 12:36:16;;;;;;;;;;;;;27.00;101750.00;;;;2074324;28;839;-61
2021/08/09 12:37:16;;;;;;;;;;;;;27.00;101745.00;;;;2090693;28;1076;-62
2021/08/09 12:38:17;;;;;;;;;;;;;27.00;101746.00;;;;2089875;28;1245;-61
2021/08/09 12:39:33;;;;;;;;;;;;;27.00;101740.00;;;;2075009;28;847;-61
2021/08/09 12:40:40;;;;;;;;;;;;;26.90;101750.00;;;;2074839;28;784;-61
2021/08/09 12:41:40;;;;;;;;;;;;;26.90;101754.00;;;;2074821;28;1062;-61
2021/08/09 12:42:41;;;;;;;;;;;;;26.90;101751.00;;;;2074948;28;888;-61
2021/08/09 12:43:41;;;;;;;;;;;;;26.90;101746.00;;;;2074725;28;879;-62
2021/08/09 12:44:42;;;;;;;;;;;;;26.90;101749.00;;;;2074770;28;1000;-62
2021/08/09 12:45:42;;;;;;;;;;;;;26.90;101753.00;;;;2074808;28;785;-61
2021/08/09 12:46:42;;;;;;;;;;;;;26.90;101744.00;;;;2082314;28;844;-61
2021/08/09 12:47:42;;;;;;;;;;;;;26.90;101753.00;;;;2081768;28;1010;-61
2021/08/09 12:48:47;;;;;;;;;;;;;26.90;101750.00;;;;2074692;28;1914;-61
2021/08/09 12:49:48;;;;;;;;;;;;;26.90;101747.00;;;;2082878;28;864;-61
2021/08/09 12:50:49;;;;;;;;;;;;;26.90;101745.00;;;;2091200;28;987;-61
2021/08/09 12:51:49;;;;;;;;;;;;;26.90;101747.00;;;;2090663;28;836;-61
2021/08/09 12:54:11;;;;;;;;;;;;;26.80;101755.00;;;;2085771;28;1850;-57
2021/08/09 12:55:11;;;;;;;;;;;;;26.80;101745.00;;;;2078650;28;1674;-59
2021/08/09 12:56:11;;;;;;;;;;;;;26.80;101741.00;;;;2081792;28;1147;-57
2021/08/09 12:57:12;;;;;;;;;;;;;26.80;101745.00;;;;2089064;28;1269;-58
2021/08/09 12:58:13;;;;;;;;;;;;;26.80;101734.00;;;;2081524;28;1229;-58
2021/08/09 12:59:13;;;;;;;;;;;;;26.90;101743.00;;;;2082145;28;853;-59
2021/08/09 13:00:14;;;;;;;;;;;;;26.80;101739.00;;;;2088952;28;761;-58
2021/08/09 13:01:14;;;;;;;;;;;;;26.90;101738.00;;;;2072023;28;1511;-59
2021/08/09 13:02:14;;;;;;;;;;;;;26.90;101751.00;;;;2065887;28;868;-58
2021/08/09 13:03:14;;;;;;;;;;;;;26.90;101737.00;;;;2064415;28;2042;-59
2021/08/09 13:04:14;;;;;;;;;;;;;26.90;101736.00;;;;2064682;28;872;-58
2021/08/09 13:05:15;;;;;;;;;;;;;27.00;101737.00;;;;2073913;28;800;-59
2021/08/09 13:06:15;;;;;;;;;;;;;27.00;101730.00;;;;2065746;28;701;-59
2021/08/09 13:07:15;;;;;;;;;;;;;27.00;101726.00;;;;2065469;28;968;-59
2021/08/09 13:08:15;;;;;;;;;;;;;27.00;101727.00;;;;2065273;28;1971;-59
2021/08/09 13:09:15;;;;;;;;;;;;;27.00;101739.00;;;;2057518;28;940;-58
2021/08/09 13:10:16;;;;;;;;;;;;;27.00;101730.00;;;;2065153;28;2304;-58
2021/08/09 13:11:16;;;;;;;;;;;;;27.00;101730.00;;;;2081356;28;1175;-58
2021/08/09 13:12:16;;;;;;;;;;;;;27.00;101734.00;;;;2082423;28;1207;-59
2021/08/09 13:14:26;;;;;;;;;;;;;27.00;101728.00;;;;2069792;28;1685;-62
2021/08/09 13:15:26;;;;;;;;;;;;;26.90;101728.00;;;;2080091;28;1492;-61
2021/08/09 13:16:29;;;;;;;;;;;;;26.90;101727.00;;;;2080664;28;1275;-62
2021/08/09 13:17:32;;;;;;;;;;;;;27.00;101729.00;;;;2072896;28;1159;-61
2021/08/09 13:18:32;;;;;;;;;;;;;27.00;101730.00;;;;2073540;28;1303;-61
2021/08/09 13:19:32;;;;;;;;;;;;;27.00;101733.00;;;;2065452;28;1108;-62
2021/08/09 13:20:32;;;;;;;;;;;;;27.00;101733.00;;;;2065342;28;864;-62
2021/08/09 13:21:33;;;;;;;;;;;;;27.00;101731.00;;;;2074061;28;742;-61
2021/08/09 13:22:33;;;;;;;;;;;;;27.00;101734.00;;;;2074250;28;817;-62
2021/08/09 13:23:33;;;;;;;;;;;;;27.00;101731.00;;;;2074155;28;891;-62
2021/08/09 13:24:33;;;;;;;;;;;;;27.00;101724.00;;;;2074154;28;805;-63
2021/08/09 13:25:34;;;;;;;;;;;;;27.00;101718.00;;;;2056953;28;968;-62
2021/08/09 13:26:34;;;;;;;;;;;;;27.00;101724.00;;;;2077052;23;2186;-58
2021/08/09 13:27:35;;;;;;;;;;;;;27.00;101729.00;;;;2089380;28;1225;-58
2021/08/09 13:28:35;;;;;;;;;;;;;27.00;101724.00;;;;2089502;28;1969;-58
2021/08/09 13:29:35;;;;;;;;;;;;;27.00;101720.00;;;;2082220;28;1261;-58
2021/08/09 13:30:35;;;;;;;;;;;;;27.00;101718.00;;;;2081573;28;2303;-57
2021/08/09 13:31:35;;;;;;;;;;;;;27.00;101713.00;;;;2081459;28;2154;-59
2021/08/09 13:32:36;;;;;;;;;;;;;27.00;101722.00;;;;2082130;28;980;-59
2021/08/09 13:33:36;;;;;;;;;;;;;27.10;101718.00;;;;2081654;28;1369;-57
2021/08/09 13:34:36;;;;;;;;;;;;;27.10;101715.00;;;;2073158;28;1542;-57
2021/08/09 13:35:36;;;;;;;;;;;;;27.10;101728.00;;;;2073395;28;2119;-59
2021/08/09 13:36:36;;;;;;;;;;;;;27.10;101712.00;;;;2081424;28;1785;-58
2021/08/09 13:37:37;;;;;;;;;;;;;27.10;101708.00;;;;2081286;28;2108;-59
2021/08/09 13:38:37;;;;;;;;;;;;;27.10;101710.00;;;;2104183;22;1910;-75
2021/08/09 13:39:37;;;;;;;;;;;;;27.00;101704.00;;;;2074201;28;951;-75
2021/08/09 13:40:37;;;;;;;;;;;;;27.00;101701.00;;;;2082246;28;1148;-75
2021/08/09 13:41:37;;;;;;;;;;;;;27.10;101703.00;;;;2082510;28;1085;-75
2021/08/09 13:42:38;;;;;;;;;;;;;27.10;101713.00;;;;2082376;28;1008;-75
2021/08/09 13:43:38;;;;;;;;;;;;;27.10;101708.00;;;;2082323;28;945;-74
2021/08/09 13:44:38;;;;;;;;;;;;;27.10;101715.00;;;;2074083;28;897;-74
2021/08/09 13:45:39;;;;;;;;;;;;;27.10;101701.00;;;;2082276;28;805;-75
2021/08/09 13:46:39;;;;;;;;;;;;;27.10;101710.00;;;;2066049;28;854;-75
2021/08/09 13:47:39;;;;;;;;;;;;;27.10;101707.00;;;;2065888;28;977;-76
2021/08/09 13:48:41;;;;;;;;;;;;;27.10;101706.00;;;;2073840;28;2367;-75
2021/08/09 13:49:41;;;;;;;;;;;;;27.10;101708.00;;;;2066461;28;850;-74
2021/08/09 13:50:41;;;;;;;;;;;;;27.00;101706.00;;;;2074325;28;1389;-74
2021/08/09 13:51:42;;;;;;;;;;;;;27.00;101700.00;;;;2074155;28;747;-75
2021/08/09 13:52:42;;;;;;;;;;;;;27.00;101696.00;;;;2082234;28;703;-75
2021/08/09 13:53:42;;;;;;;;;;;;;27.00;101701.00;;;;2074102;28;961;-74
2021/08/09 13:54:42;;;;;;;;;;;;;27.00;101706.00;;;;2082195;28;1106;-74
2021/08/09 13:55:42;;;;;;;;;;;;;27.00;101710.00;;;;2082282;28;787;-74
2021/08/09 13:56:43;;;;;;;;;;;;;27.00;101707.00;;;;2073989;28;1076;-75
2021/08/09 13:57:43;;;;;;;;;;;;;27.00;101700.00;;;;2073840;28;964;-76
2021/08/09 13:58:43;;;;;;;;;;;;;27.10;101705.00;;;;2074035;28;1252;-75
2021/08/09 13:59:43;;;;;;;;;;;;;27.10;101698.00;;;;2074086;28;849;-74
2021/08/09 14:00:44;;;;;;;;;;;;;27.10;101699.00;;;;2082299;28;925;-74
2021/08/09 14:01:44;;;;;;;;;;;;;27.00;101691.00;;;;2074158;28;999;-75
2021/08/09 14:02:44;;;;;;;;;;;;;27.10;101690.00;;;;2074498;28;3169;-74
2021/08/09 14:03:46;;;;;;;;;;;;;27.00;101693.00;;;;2081571;28;1366;-74
2021/08/09 14:04:46;;;;;;;;;;;;;27.00;101696.00;;;;2082317;28;830;-74
2021/08/09 14:05:46;;;;;;;;;;;;;27.00;101688.00;;;;2090458;28;992;-74
2021/08/09 14:06:46;;;;;;;;;;;;;27.00;101696.00;;;;2082329;28;806;-74
2021/08/09 14:07:46;;;;;;;;;;;;;27.00;101693.00;;;;2073668;28;839;-76
2021/08/09 14:08:47;;;;;;;;;;;;;27.10;101686.00;;;;2082114;28;1898;-74
2021/08/09 14:09:47;;;;;;;;;;;;;27.10;101689.00;;;;2078976;28;2993;-73
2021/08/09 14:10:47;;;;;;;;;;;;;27.20;101681.00;;;;2076538;28;9577;-75
2021/08/09 14:11:47;;;;;;;;;;;;;27.30;101686.00;;;;2070642;28;1215;-76
2021/08/09 14:12:47;;;;;;;;;;;;;27.30;101696.00;;;;2050826;28;994;-76
2021/08/09 14:13:48;;;;;;;;;;;;;27.30;101691.00;;;;2053833;28;1371;-74
2021/08/09 14:14:48;;;;;;;;;;;;;27.30;101684.00;;;;2066685;28;1049;-74
2021/08/09 14:15:48;;;;;;;;;;;;;27.40;101684.00;;;;2065469;28;1194;-74
2021/08/09 14:16:48;;;;;;;;;;;;;27.40;101685.00;;;;2066936;28;1284;-74
2021/08/09 14:17:48;;;;;;;;;;;;;27.40;101685.00;;;;2067417;28;1136;-75
2021/08/09 14:18:49;;;;;;;;;;;;;27.50;101692.00;;;;2057453;28;1331;-75
2021/08/09 14:19:49;;;;;;;;;;;;;27.50;101692.00;;;;2065645;28;978;-75
2021/08/09 14:20:49;;;;;;;;;;;;;27.50;101690.00;;;;2073940;28;954;-75
2021/08/09 14:21:49;;;;;;;;;;;;;27.50;101687.00;;;;2073953;28;827;-75
2021/08/09 14:22:50;;;;;;;;;;;;;27.50;101687.00;;;;2057845;28;1569;-75
2021/08/09 14:23:50;;;;;;;;;;;;;27.50;101693.00;;;;2073837;28;907;-75
2021/08/09 14:24:50;;;;;;;;;;;;;27.60;101700.00;;;;2057737;28;1032;-74
2021/08/09 14:25:50;;;;;;;;;;;;;27.50;101696.00;;;;2051072;28;861;-74
2021/08/09 14:26:50;;;;;;;;;;;;;27.60;101701.00;;;;2057533;28;1296;-74
2021/08/09 14:27:50;;;;;;;;;;;;;27.60;101696.00;;;;2057285;28;1196;-73
2021/08/09 14:28:51;;;;;;;;;;;;;27.50;101703.00;;;;2073172;28;1981;-74
2021/08/09 14:29:51;;;;;;;;;;;;;27.50;101698.00;;;;2073762;28;1049;-76
2021/08/09 14:30:51;;;;;;;;;;;;;27.50;101711.00;;;;2057688;28;1048;-75
2021/08/09 14:31:51;;;;;;;;;;;;;27.50;101687.00;;;;2057790;28;1111;-76
2021/08/09 14:32:51;;;;;;;;;;;;;27.50;101701.00;;;;2065599;28;926;-75
2021/08/09 14:33:52;;;;;;;;;;;;;27.60;101702.00;;;;2073742;28;1365;-75
2021/08/09 14:34:52;;;;;;;;;;;;;27.60;101694.00;;;;2065696;28;1210;-76
2021/08/09 14:35:52;;;;;;;;;;;;;27.60;101706.00;;;;2065640;28;1056;-76
2021/08/09 14:36:52;;;;;;;;;;;;;27.70;101704.00;;;;2049969;28;1335;-76
2021/08/09 14:37:53;;;;;;;;;;;;;27.60;101700.00;;;;2057438;28;1346;-77
2021/08/09 14:38:56;;;;;;;;;;;;;27.60;101697.00;;;;2064420;28;1295;-76
2021/08/09 14:39:56;;;;;;;;;;;;;27.70;101698.00;;;;2066145;28;1245;-77
2021/08/09 14:40:56;;;;;;;;;;;;;27.60;101701.00;;;;2066041;28;1017;-76
2021/08/09 14:41:56;;;;;;;;;;;;;27.60;101697.00;;;;2065730;28;1123;-75
2021/08/09 14:42:56;;;;;;;;;;;;;27.60;101694.00;;;;2065776;28;842;-77
2021/08/09 14:43:56;;;;;;;;;;;;;27.60;101703.00;;;;2057650;28;1263;-77
2021/08/09 14:44:58;;;;;;;;;;;;;27.60;101695.00;;;;2057657;28;706;-75
2021/08/09 14:45:58;;;;;;;;;;;;;27.50;101696.00;;;;2065719;28;1239;-76
2021/08/09 14:46:59;;;;;;;;;;;;;27.60;101695.00;;;;2073753;28;1021;-75
2021/08/09 14:47:59;;;;;;;;;;;;;27.70;101691.00;;;;2065431;28;1300;-74
2021/08/09 14:48:59;;;;;;;;;;;;;27.70;101692.00;;;;2057329;28;1906;-75
2021/08/09 14:49:59;;;;;;;;;;;;;27.60;101697.00;;;;2065651;28;1025;-74
2021/08/09 14:51:00;;;;;;;;;;;;;27.70;101691.00;;;;2057554;28;1398;-74
2021/08/09 14:52:00;;;;;;;;;;;;;27.70;101702.00;;;;2057685;28;879;-74
2021/08/09 14:53:00;;;;;;;;;;;;;27.70;101702.00;;;;2065493;28;1364;-74
2021/08/09 14:54:00;;;;;;;;;;;;;27.70;101699.00;;;;2081925;28;660;-75
2021/08/09 14:55:00;;;;;;;;;;;;;27.70;101690.00;;;;2081825;28;981;-75
2021/08/09 14:56:01;;;;;;;;;;;;;27.70;101682.00;;;;2057687;28;891;-74
2021/08/09 14:57:02;;;;;;;;;;;;;27.70;101694.00;;;;2065723;28;796;-75
2021/08/09 14:58:02;;;;;;;;;;;;;27.70;101694.00;;;;2074011;28;874;-74
2021/08/09 14:59:03;;;;;;;;;;;;;27.70;101692.00;;;;2073880;28;1221;-76
2021/08/09 15:00:03;;;;;;;;;;;;;27.70;101695.00;;;;2060750;28;1267;-75
2021/08/09 15:01:04;;;;;;;;;;;;;27.70;101692.00;;;;2064304;28;1093;-75
2021/08/09 15:02:04;;;;;;;;;;;;;27.80;101693.00;;;;2056329;28;1254;-80
2021/08/09 15:03:05;;;;;;;;;;;;;27.70;101693.00;;;;2068610;28;9514;-76
2021/08/09 15:04:05;;;;;;;;;;;;;27.70;101699.00;;;;2082667;28;878;-76
2021/08/09 15:05:07;;;;;;;;;;;;;27.80;101696.00;;;;2069829;28;1215;-77